Погода Асанна неделю

Атырауская область, Казахстан

16 - 22 июля
  • 16июля
    Сегодня
    +21°
    +35°
    Ясно и безоблачно
    ВремяПогодаТемператураВлажностьДавлениеВетер, м/сВероятность осадков
    02:00Ясно и безоблачно+26°C39 %757 мм3.4 м/с2 %
    05:00Ясно и безоблачно+24°C43 %758 мм3.7 м/с2 %
    08:00Ясно и безоблачно+25°C46 %758 мм3.6 м/с2 %
    11:00Ясно и безоблачно+31°C35 %759 мм5.3 м/с2 %
    14:00Ясно и безоблачно+33°C25 %758 мм5.5 м/с2 %
    17:00Ясно и безоблачно+35°C21 %758 мм5.8 м/с2 %
    20:00Практически безоблачно+33°C22 %758 мм5.7 м/с2 %
    23:00Облачно с прояснениями+28°C32 %759 мм3.4 м/с2 %
  • 17июля
    Среда
    +20°
    +35°
    Практически безоблачно
    ВремяПогодаТемператураВлажностьДавлениеВетер, м/сВероятность осадков
    02:00Ясно и безоблачно+25°C39 %759 мм3.7 м/с2 %
    05:00Ясно и безоблачно+22°C51 %759 мм2.5 м/с2 %
    08:00Ясно и безоблачно+24°C51 %760 мм3.1 м/с2 %
    11:00Ясно и безоблачно+30°C36 %760 мм3.5 м/с2 %
    14:00Практически безоблачно+33°C28 %760 мм2.9 м/с2 %
    17:00Практически безоблачно+34°C23 %759 мм3.0 м/с2 %
    20:00Ясно и безоблачно+33°C22 %758 мм2.7 м/с2 %
    23:00Ясно и безоблачно+29°C28 %759 мм5.4 м/с2 %
  • 18июля
    Четверг
    +21°
    +34°
    Ясно и безоблачно
    ВремяПогодаТемператураВлажностьДавлениеВетер, м/сВероятность осадков
    02:00Ясно и безоблачно+25°C34 %759 мм3.2 м/с2 %
    05:00Ясно и безоблачно+22°C43 %759 мм2.6 м/с2 %
    08:00Ясно и безоблачно+23°C46 %760 мм2.9 м/с2 %
    11:00Ясно и безоблачно+30°C32 %760 мм4.4 м/с2 %
    14:00Ясно и безоблачно+33°C27 %759 мм4.0 м/с2 %
    17:00Ясно и безоблачно+34°C24 %758 мм3.6 м/с2 %
    20:00Ясно и безоблачно+33°C24 %757 мм4.3 м/с2 %
    23:00Ясно и безоблачно+27°C38 %758 мм2.3 м/с2 %
  • 19июля
    Пятница
    +22°
    +39°
    Ясно и безоблачно
    ВремяПогодаТемператураВлажностьДавлениеВетер, м/сВероятность осадков
    02:00Ясно и безоблачно+24°C40 %757 мм2.1 м/с2 %
    05:00Ясно и безоблачно+22°C47 %756 мм2.3 м/с2 %
    08:00Ясно и безоблачно+25°C40 %756 мм3.3 м/с2 %
    11:00Практически безоблачно+33°C25 %756 мм3.6 м/с2 %
    14:00Ясно и безоблачно+37°C21 %754 мм4.4 м/с3 %
    17:00Практически безоблачно+38°C19 %753 мм3.4 м/с4 %
    20:00Практически безоблачно+34°C27 %753 мм2.2 м/с3 %
    23:00Ясно и безоблачно+31°C37 %753 мм4.6 м/с4 %
Мы используем cookies
Соглашаюсь